Bovril, Argentina
Current Conditions -  °F | °C
As of 12:00 PM on Thursday 30 Oct 2014 (Local Time) from SUSO Reporting Station
Overcast Overcast  
Wind Chill: 23°   Ceiling: 1300
Heat Index: 23°   Visibility: 6mi
Dew Point: 19°   Wind: 5mph
Humidity: 78%   Direction: 130°SE
Pressure: 29.77"   Gusts: NA
Location:  31.35°S, 59.43°W
Report Text: SUSO 301500Z 13004KT 9999 OVC013 23/19 Q1008
Loading
Personal Weather Stations






























Interactive Weather Map
Tropical Storm Tracking
New forecast layout! Learn more

10-Day Weather Forecast

Advertisements
Track Severe Weather on mobile